Terminal Aerodrome Forecast
Issued by NWS

Home | Current Version | Previous Version | Text Only | Print | Product List | Glossary On
Versions: 1 2 3 4 5 6 7 8 9 10 11 12 13 14 15 16 17 18 19 20 21
000
FTUS44 KCRP 281129
TAFALI
TAF
KALI 281129Z 2812/2912 15010KT P6SM BKN015 WS020/18045KT
     FM281400 17014G20KT P6SM BKN025
     FM281700 16015G22KT P6SM BKN050
     FM290200 14014G20KT P6SM BKN020=

USA.gov is the U.S. government's official web portal to all federal, state and local government web resources and services.